createdAt,value
2022-11-23T00:00:20.560Z,84.92
2022-11-23T00:02:47.393Z,84.93
2022-11-23T00:05:14.318Z,84.79
2022-11-23T00:07:41.228Z,85.49
2022-11-23T00:10:08.631Z,85.17
2022-11-23T00:12:35.591Z,85.29
2022-11-23T00:15:02.477Z,85.36
2022-11-23T00:17:29.283Z,85.82
2022-11-23T00:19:56.129Z,86.12
2022-11-23T00:22:23.837Z,86.43
2022-11-23T00:24:50.695Z,86.33
2022-11-23T00:27:17.657Z,86.60
2022-11-23T00:29:44.560Z,86.59
2022-11-23T00:32:11.427Z,86.80
2022-11-23T00:34:38.213Z,86.91
2022-11-23T00:37:05.186Z,86.51
2022-11-23T00:39:32.294Z,87.14
2022-11-23T00:41:59.352Z,86.61
2022-11-23T00:44:26.256Z,87.20
2022-11-23T00:46:53.075Z,87.46
2022-11-23T00:49:19.969Z,87.55
2022-11-23T00:51:46.789Z,87.63
2022-11-23T00:54:13.907Z,87.29
2022-11-23T00:56:40.828Z,87.50
2022-11-23T00:59:07.675Z,87.36
2022-11-23T01:01:37.298Z,86.78
2022-11-23T01:04:06.386Z,86.61
2022-11-23T01:06:35.957Z,86.83
2022-11-23T01:09:06.837Z,86.96
2022-11-23T01:11:33.854Z,86.91
2022-11-23T01:14:01.307Z,86.93
2022-11-23T01:16:34.283Z,86.58
2022-11-23T01:19:04.363Z,87.31
2022-11-23T01:21:32.347Z,88.00
2022-11-23T01:23:59.327Z,88.24
2022-11-23T01:26:26.724Z,87.80
2022-11-23T01:28:53.565Z,88.93
2022-11-23T01:31:23.396Z,88.71
2022-11-23T01:33:57.285Z,88.97
2022-11-23T01:36:27.095Z,88.99
2022-11-23T01:38:54.306Z,89.72
2022-11-23T01:41:24.508Z,89.59
2022-11-23T01:43:51.656Z,89.52
2022-11-23T01:46:19.067Z,89.76
2022-11-23T01:48:55.987Z,90.58
2022-11-23T01:51:36.374Z,90.54
2022-11-23T01:54:23.995Z,90.35
2022-11-23T01:57:08.203Z,90.62
2022-11-23T01:59:52.149Z,90.14
2022-11-23T02:02:19.258Z,90.67
2022-11-23T02:04:54.302Z,90.45
2022-11-23T02:07:29.408Z,90.27
2022-11-23T02:09:56.444Z,90.69
2022-11-23T02:12:31.389Z,90.23
2022-11-23T02:19:38.351Z,90.82
2022-11-23T02:22:12.698Z,90.46
2022-11-23T02:24:56.746Z,90.86
2022-11-23T02:27:24.313Z,91.75
2022-11-23T02:30:16.405Z,91.82
2022-11-23T02:32:44.232Z,91.81
2022-11-23T02:35:12.233Z,91.09
2022-11-23T02:37:42.226Z,90.60
2022-11-23T02:40:28.968Z,90.56
2022-11-23T02:42:59.505Z,90.19
2022-11-23T02:45:57.236Z,90.67
2022-11-23T02:48:29.108Z,90.83
2022-11-23T02:51:01.765Z,90.28
2022-11-23T02:53:50.335Z,91.28
2022-11-23T02:56:18.265Z,90.40
2022-11-23T02:58:53.187Z,91.59
2022-11-23T03:01:26.214Z,91.02
2022-11-23T03:03:57.182Z,91.26
2022-11-23T03:06:35.472Z,90.97
2022-11-23T03:09:06.045Z,91.49
2022-11-23T03:11:38.907Z,90.94
2022-11-23T03:14:05.816Z,91.10
2022-11-23T03:16:36.586Z,90.84
2022-11-23T03:19:03.940Z,90.76
2022-11-23T03:21:30.817Z,91.08
2022-11-23T03:23:58.345Z,90.87
2022-11-23T03:26:25.207Z,91.08
2022-11-23T03:28:52.197Z,91.12
2022-11-23T03:31:19.049Z,90.74
2022-11-23T03:33:45.865Z,91.37
2022-11-23T03:36:12.673Z,91.21
2022-11-23T03:38:39.536Z,90.99
2022-11-23T03:41:06.410Z,92.72
2022-11-23T03:43:33.280Z,92.15
2022-11-23T03:46:00.098Z,92.84
2022-11-23T03:48:27.046Z,93.77
2022-11-23T03:50:53.927Z,93.68
2022-11-23T03:53:20.753Z,93.75
2022-11-23T03:55:47.705Z,93.86
2022-11-23T03:58:15.126Z,93.43
2022-11-23T04:00:42.070Z,93.58
2022-11-23T04:03:09.056Z,93.19
2022-11-23T04:05:35.945Z,92.94
2022-11-23T04:08:02.868Z,92.66
2022-11-23T04:10:29.806Z,93.10
2022-11-23T04:12:56.857Z,92.27
2022-11-23T04:15:23.748Z,92.20
2022-11-23T04:17:50.845Z,91.58
2022-11-23T04:20:17.726Z,91.35
2022-11-23T04:22:44.525Z,91.05
2022-11-23T04:25:11.668Z,91.21
2022-11-23T04:27:38.997Z,90.75
2022-11-23T04:30:06.689Z,90.28
2022-11-23T04:32:33.544Z,90.29
2022-11-23T04:35:00.444Z,90.61
2022-11-23T04:37:27.255Z,90.24
2022-11-23T04:39:54.146Z,90.41
2022-11-23T04:42:21.178Z,90.40
2022-11-23T04:44:47.969Z,91.00
2022-11-23T04:47:14.804Z,91.34
2022-11-23T04:49:41.585Z,90.64
2022-11-23T04:52:08.434Z,90.86
2022-11-23T04:54:35.415Z,91.03
2022-11-23T04:57:05.024Z,90.63
2022-11-23T04:59:32.238Z,90.95
2022-11-23T05:01:59.526Z,91.49
2022-11-23T05:04:26.475Z,91.46
2022-11-23T05:06:53.816Z,91.73
2022-11-23T05:09:21.044Z,92.92
2022-11-23T05:11:48.886Z,92.50
2022-11-23T05:14:15.825Z,92.60
2022-11-23T05:16:45.474Z,92.82
2022-11-23T05:19:12.475Z,92.73
2022-11-23T05:21:39.451Z,92.77
2022-11-23T05:24:06.685Z,93.26
2022-11-23T05:26:33.608Z,92.80
2022-11-23T05:29:00.545Z,93.24
2022-11-23T05:31:28.334Z,93.01
2022-11-23T05:33:55.195Z,91.63
2022-11-23T05:36:22.205Z,91.03
2022-11-23T05:38:49.964Z,91.10
2022-11-23T05:41:16.914Z,90.97
2022-11-23T05:43:45.173Z,90.67
2022-11-23T05:46:12.134Z,90.22
2022-11-23T05:48:39.113Z,90.81
2022-11-23T05:51:06.154Z,90.49
2022-11-23T05:53:33.220Z,90.74
2022-11-23T05:56:02.226Z,90.17
2022-11-23T05:58:29.235Z,89.14
2022-11-23T06:01:00.555Z,88.39
2022-11-23T06:03:27.930Z,87.57
2022-11-23T06:05:55.065Z,86.73
2022-11-23T06:08:22.292Z,86.79
2022-11-23T06:10:49.205Z,86.57
2022-11-23T06:13:16.156Z,86.83
2022-11-23T06:15:43.393Z,86.92
2022-11-23T06:18:10.534Z,86.35
2022-11-23T06:20:40.113Z,86.77
2022-11-23T06:23:07.272Z,86.18
2022-11-23T06:25:36.743Z,85.90
2022-11-23T06:28:05.622Z,86.27
2022-11-23T06:30:33.305Z,86.95
2022-11-23T06:33:04.990Z,84.79
2022-11-23T06:35:32.015Z,79.14
2022-11-23T06:37:59.064Z,79.49
2022-11-23T06:40:26.114Z,74.12
2022-11-23T06:42:58.679Z,71.91
2022-11-23T06:45:25.684Z,73.38
2022-11-23T06:47:55.833Z,76.27
2022-11-23T06:50:23.073Z,77.33
2022-11-23T06:52:54.795Z,76.35
2022-11-23T06:55:21.947Z,74.62
2022-11-23T06:57:48.836Z,75.25
2022-11-23T07:00:16.295Z,72.21
2022-11-23T07:02:44.934Z,71.80
2022-11-23T07:05:11.807Z,75.45
2022-11-23T07:07:38.871Z,75.08
2022-11-23T07:10:07.581Z,67.75
2022-11-23T07:12:34.875Z,62.22
2022-11-23T07:15:01.994Z,58.53
2022-11-23T07:17:31.435Z,57.93
2022-11-23T07:19:58.285Z,58.31
2022-11-23T07:22:25.222Z,61.60
2022-11-23T07:24:52.135Z,61.79
2022-11-23T07:27:20.553Z,62.39
2022-11-23T07:29:47.645Z,65.07
2022-11-23T07:32:15.914Z,67.18
2022-11-23T07:34:42.714Z,66.83
2022-11-23T07:37:09.804Z,67.30
2022-11-23T07:39:56.447Z,65.63
2022-11-23T07:42:33.583Z,66.69
2022-11-23T07:45:02.125Z,66.50
2022-11-23T07:47:29.214Z,67.61
2022-11-23T07:49:56.434Z,71.33
2022-11-23T07:52:26.033Z,70.71
2022-11-23T07:54:53.494Z,68.37
2022-11-23T07:57:20.518Z,70.09
2022-11-23T07:59:47.492Z,67.39
2022-11-23T08:02:16.129Z,64.76
2022-11-23T08:04:43.468Z,60.45
2022-11-23T08:07:10.627Z,59.15
2022-11-23T08:09:37.629Z,56.36
2022-11-23T08:12:05.088Z,57.59
2022-11-23T08:14:32.606Z,60.46
2022-11-23T08:16:59.819Z,56.82
2022-11-23T08:19:26.715Z,59.21
2022-11-23T08:21:53.797Z,57.32
2022-11-23T08:24:20.678Z,58.11
2022-11-23T08:26:47.523Z,58.22
2022-11-23T08:29:14.765Z,58.89
2022-11-23T08:31:42.199Z,61.26
2022-11-23T08:34:09.834Z,60.90
2022-11-23T08:36:39.187Z,61.50
2022-11-23T08:39:07.984Z,63.31
2022-11-23T08:41:36.085Z,62.40
2022-11-23T08:44:03.977Z,60.59
2022-11-23T08:46:31.163Z,60.65
2022-11-23T08:48:59.457Z,61.97
2022-11-23T08:51:30.967Z,62.25
2022-11-23T08:53:57.982Z,62.52
2022-11-23T08:56:24.847Z,62.40
2022-11-23T08:58:51.967Z,60.85
2022-11-23T09:01:19.660Z,61.44
2022-11-23T09:03:46.637Z,62.52
2022-11-23T09:06:13.714Z,62.85
2022-11-23T09:08:40.685Z,62.95
2022-11-23T09:11:12.666Z,63.27
2022-11-23T09:13:41.437Z,63.70
2022-11-23T09:16:10.106Z,64.30
2022-11-23T09:18:37.604Z,64.89
2022-11-23T09:21:05.707Z,64.43
2022-11-23T09:23:33.177Z,66.05
2022-11-23T09:26:01.379Z,67.06
2022-11-23T09:28:28.617Z,68.02
2022-11-23T09:30:58.118Z,69.13
2022-11-23T09:33:25.688Z,69.84
2022-11-23T09:36:03.238Z,71.01
2022-11-23T09:38:55.267Z,71.34
2022-11-23T09:41:23.898Z,71.42
2022-11-23T09:44:07.890Z,71.31
2022-11-23T09:47:11.358Z,73.04
2022-11-23T09:50:07.767Z,73.50
2022-11-23T09:52:38.657Z,72.93
2022-11-23T09:55:24.800Z,72.24
2022-11-23T09:58:01.966Z,72.97
2022-11-23T10:00:37.988Z,73.81
2022-11-23T10:03:05.549Z,72.52
2022-11-23T10:05:39.034Z,72.34
2022-11-23T10:08:27.732Z,72.52
2022-11-23T10:11:04.006Z,73.35
2022-11-23T10:13:51.606Z,72.21
2022-11-23T10:16:57.020Z,72.80
2022-11-23T10:19:51.272Z,74.04
2022-11-23T10:22:26.775Z,74.31
2022-11-23T10:24:54.289Z,75.20
2022-11-23T10:27:24.509Z,75.25
2022-11-23T10:29:54.361Z,74.07
2022-11-23T10:32:33.464Z,74.57
2022-11-23T10:35:13.142Z,75.59
2022-11-23T10:37:40.919Z,73.69
2022-11-23T10:40:26.541Z,73.88
2022-11-23T10:43:02.055Z,73.83
2022-11-23T10:45:30.265Z,73.08
2022-11-23T10:48:00.788Z,73.61
2022-11-23T10:50:34.044Z,73.07
2022-11-23T10:53:20.487Z,73.55
2022-11-23T10:55:59.884Z,73.58
2022-11-23T10:58:35.463Z,74.03
2022-11-23T11:01:08.355Z,74.21
2022-11-23T11:03:36.169Z,73.80
2022-11-23T11:06:09.893Z,74.08
2022-11-23T11:09:03.662Z,73.89
2022-11-23T11:11:47.215Z,73.21
2022-11-23T11:14:20.943Z,73.67
2022-11-23T11:16:51.602Z,75.68
2022-11-23T11:19:34.863Z,75.24
2022-11-23T11:22:26.875Z,76.01
2022-11-23T11:24:54.589Z,76.47
2022-11-23T11:27:24.358Z,76.40
2022-11-23T11:29:54.857Z,76.53
2022-11-23T11:32:31.546Z,77.30
2022-11-23T11:35:21.189Z,77.21
2022-11-23T11:37:52.456Z,76.79
2022-11-23T11:40:39.605Z,75.97
2022-11-23T11:43:11.618Z,77.03
2022-11-23T11:45:59.656Z,78.19
2022-11-23T11:48:47.639Z,78.83
2022-11-23T11:51:42.983Z,78.22
2022-11-23T11:54:39.432Z,77.87
2022-11-23T11:57:20.614Z,77.32
2022-11-23T11:59:56.695Z,77.31
2022-11-23T12:02:29.833Z,76.95
2022-11-23T12:05:22.973Z,76.73
2022-11-23T12:08:01.998Z,76.88
2022-11-23T12:10:38.620Z,76.41
2022-11-23T12:13:05.610Z,76.30
2022-11-23T12:15:49.630Z,76.89
2022-11-23T12:18:31.541Z,77.24
2022-11-23T12:21:04.905Z,78.23
2022-11-23T12:23:59.194Z,77.23
2022-11-23T12:26:52.937Z,77.90
2022-11-23T12:29:44.838Z,77.93
2022-11-23T12:32:17.654Z,77.42
2022-11-23T12:35:07.028Z,76.82
2022-11-23T12:37:40.296Z,76.16
2022-11-23T12:40:32.627Z,76.78
2022-11-23T12:43:12.307Z,76.54
2022-11-23T12:46:03.696Z,75.95
2022-11-23T12:48:52.674Z,75.17
2022-11-23T12:51:32.706Z,75.54
2022-11-23T12:54:26.994Z,75.58
2022-11-23T12:57:08.504Z,76.92
2022-11-23T12:59:44.513Z,75.06
2022-11-23T13:02:37.901Z,74.40
2022-11-23T13:05:36.211Z,74.65
2022-11-23T13:11:28.685Z,71.96
2022-11-23T13:14:03.225Z,71.29
2022-11-23T13:16:55.043Z,71.70
2022-11-23T13:19:37.906Z,71.52
2022-11-23T13:22:11.241Z,72.23
2022-11-23T13:24:40.661Z,70.81
2022-11-23T13:27:16.933Z,71.25
2022-11-23T13:29:49.999Z,72.02
2022-11-23T13:32:38.396Z,73.72
2022-11-23T13:35:23.685Z,74.71
2022-11-23T13:37:56.562Z,75.33
2022-11-23T13:40:35.086Z,75.70
2022-11-23T13:43:16.845Z,75.42
2022-11-23T13:45:44.011Z,75.35
2022-11-23T13:48:19.325Z,77.08
2022-11-23T13:50:51.351Z,77.19
2022-11-23T13:53:45.038Z,76.06
2022-11-23T13:56:36.078Z,76.35
2022-11-23T13:59:24.792Z,76.37
2022-11-23T14:02:07.120Z,76.23
2022-11-23T14:04:37.100Z,76.48
2022-11-23T14:07:09.308Z,76.20
2022-11-23T14:09:44.526Z,77.18
2022-11-23T14:12:12.292Z,81.00
2022-11-23T14:14:50.023Z,85.44
2022-11-23T14:17:28.069Z,88.44
2022-11-23T14:20:17.930Z,91.87
2022-11-23T14:23:22.288Z,92.73
2022-11-23T14:26:15.611Z,93.76
2022-11-23T14:34:24.852Z,93.45
2022-11-23T14:37:11.362Z,92.82
2022-11-23T14:40:06.717Z,93.14
2022-11-23T14:42:40.285Z,93.82
2022-11-23T14:45:12.344Z,93.77
2022-11-23T14:50:34.229Z,94.92
2022-11-23T14:53:03.030Z,95.40
2022-11-23T14:55:31.677Z,95.35
2022-11-23T15:14:48.903Z,94.46
2022-11-23T15:25:36.555Z,94.40
2022-11-23T15:28:04.215Z,93.75
2022-11-23T15:30:32.328Z,93.88
2022-11-23T15:33:09.649Z,92.89
2022-11-23T15:35:39.973Z,92.10
2022-11-23T15:38:22.160Z,92.07
2022-11-23T15:40:51.965Z,92.39
2022-11-23T15:43:20.241Z,91.92
2022-11-23T15:45:47.812Z,91.34
2022-11-23T15:48:22.331Z,91.02
2022-11-23T15:50:53.715Z,90.60
2022-11-23T15:53:25.706Z,91.56
2022-11-23T15:55:53.854Z,90.89
2022-11-23T15:58:22.275Z,90.34
2022-11-23T16:01:05.343Z,90.11
2022-11-23T16:03:40.158Z,90.41
2022-11-23T16:06:18.548Z,90.91
2022-11-23T16:08:47.108Z,90.45
2022-11-23T16:11:37.047Z,90.53
2022-11-23T16:14:17.641Z,91.29
2022-11-23T16:16:47.165Z,91.79
2022-11-23T16:19:34.319Z,91.63
2022-11-23T16:22:05.597Z,90.83
2022-11-23T16:24:36.623Z,91.51
2022-11-23T16:27:14.277Z,89.33
2022-11-23T16:29:41.502Z,89.66
2022-11-23T16:32:36.697Z,85.80
2022-11-23T16:35:17.034Z,84.78
2022-11-23T16:37:46.436Z,84.89
2022-11-23T16:40:17.494Z,84.61
2022-11-23T16:43:38.803Z,84.30
2022-11-23T16:46:06.146Z,84.69
2022-11-23T16:48:47.441Z,84.17
2022-11-23T16:51:15.194Z,84.19
2022-11-23T16:54:11.927Z,84.88
2022-11-23T16:56:31.049Z,85.29
2022-11-23T16:58:58.107Z,85.11
2022-11-23T17:01:28.088Z,84.54
2022-11-23T17:03:55.131Z,84.95
2022-11-23T17:06:23.811Z,84.41
2022-11-23T17:08:59.273Z,85.16
2022-11-23T17:11:28.885Z,84.80
2022-11-23T17:13:57.279Z,83.75
2022-11-23T17:16:26.527Z,84.29
2022-11-23T17:18:54.048Z,84.75
2022-11-23T17:21:21.140Z,85.18
2022-11-23T17:23:48.853Z,84.94
2022-11-23T17:26:22.177Z,83.46
2022-11-23T17:28:49.200Z,82.77
2022-11-23T17:31:16.229Z,82.11
2022-11-23T17:33:43.191Z,81.64
2022-11-23T17:36:12.686Z,82.17
2022-11-23T17:38:40.170Z,82.62
2022-11-23T17:41:07.138Z,82.06
2022-11-23T17:43:34.250Z,81.54
2022-11-23T17:46:01.374Z,82.33
2022-11-23T17:48:28.515Z,82.56
2022-11-23T17:50:55.617Z,83.27
2022-11-23T17:53:25.362Z,82.67
2022-11-23T17:55:52.608Z,82.45
2022-11-23T17:58:19.518Z,82.51
2022-11-23T18:00:47.047Z,82.75
2022-11-23T18:03:17.475Z,81.85
2022-11-23T18:05:45.340Z,82.45
2022-11-23T18:08:15.129Z,83.12
2022-11-23T18:10:42.303Z,83.17
2022-11-23T18:13:09.631Z,82.83
2022-11-23T18:15:38.552Z,83.73
2022-11-23T18:18:05.495Z,83.37
2022-11-23T18:20:32.503Z,83.73
2022-11-23T18:22:59.695Z,83.21
2022-11-23T18:25:27.526Z,83.89
2022-11-23T18:27:55.936Z,83.51
2022-11-23T18:30:23.509Z,83.17
2022-11-23T18:32:52.060Z,83.86
2022-11-23T18:35:19.526Z,83.60
2022-11-23T18:37:46.797Z,83.19
2022-11-23T18:40:13.950Z,84.63
2022-11-23T18:42:40.993Z,84.20
2022-11-23T18:45:09.644Z,84.02
2022-11-23T18:47:36.747Z,83.93
2022-11-23T18:50:06.680Z,83.02
2022-11-23T18:52:34.229Z,83.50
2022-11-23T18:55:01.304Z,84.11
2022-11-23T18:57:28.515Z,84.54
2022-11-23T18:59:58.364Z,83.39
2022-11-23T19:02:26.141Z,84.30
2022-11-23T19:04:52.947Z,83.52
2022-11-23T19:07:26.460Z,83.50
2022-11-23T19:09:53.979Z,84.90
2022-11-23T19:12:21.317Z,86.29
2022-11-23T19:14:50.087Z,87.25
2022-11-23T19:17:18.608Z,85.02
2022-11-23T19:19:46.955Z,85.93
2022-11-23T19:22:14.729Z,85.75
2022-11-23T19:24:41.676Z,85.79
2022-11-23T19:27:08.577Z,85.66
2022-11-23T19:29:36.444Z,86.10
2022-11-23T19:32:03.545Z,85.78
2022-11-23T19:34:30.707Z,85.25
2022-11-23T19:36:57.968Z,86.58
2022-11-23T19:39:24.994Z,86.63
2022-11-23T19:41:51.871Z,86.12
2022-11-23T19:44:18.871Z,85.65
2022-11-23T19:46:45.729Z,85.79
2022-11-23T19:49:12.657Z,86.37
2022-11-23T19:51:39.541Z,86.09
2022-11-23T19:54:07.033Z,87.05
2022-11-23T19:56:33.819Z,87.06
2022-11-23T19:59:01.576Z,87.10
2022-11-23T20:01:32.174Z,87.33
2022-11-23T20:04:07.887Z,86.99
2022-11-23T20:06:37.427Z,86.95
2022-11-23T20:09:13.283Z,88.13
2022-11-23T20:11:41.213Z,86.97
2022-11-23T20:14:10.393Z,87.57
2022-11-23T20:16:37.711Z,86.83
2022-11-23T20:19:07.089Z,86.71
2022-11-23T20:21:35.010Z,87.36
2022-11-23T20:24:05.800Z,87.38
2022-11-23T20:26:34.754Z,87.36
2022-11-23T20:29:02.253Z,87.05
2022-11-23T20:31:30.801Z,87.89
2022-11-23T20:33:58.692Z,87.12
2022-11-23T20:36:32.999Z,86.93
2022-11-23T20:39:03.968Z,86.88
2022-11-23T20:41:34.387Z,87.21
2022-11-23T20:44:03.689Z,87.29
2022-11-23T20:47:00.018Z,87.81
2022-11-23T20:49:18.903Z,87.46
2022-11-23T20:51:45.854Z,87.67
2022-11-23T20:54:12.900Z,87.26
2022-11-23T20:56:39.788Z,88.30
2022-11-23T20:59:06.886Z,89.46
2022-11-23T21:01:34.758Z,90.15
2022-11-23T21:04:01.776Z,88.94
2022-11-23T21:06:29.227Z,89.97
2022-11-23T21:08:56.556Z,89.49
2022-11-23T21:11:47.325Z,89.53
2022-11-23T21:14:27.670Z,89.27
2022-11-23T21:16:57.201Z,88.83
2022-11-23T21:19:32.431Z,90.76
2022-11-23T21:22:13.991Z,91.48
2022-11-23T21:24:41.702Z,89.96
2022-11-23T21:27:14.830Z,90.97
2022-11-23T21:29:44.221Z,91.63
2022-11-23T21:32:14.998Z,90.96
2022-11-23T21:34:41.922Z,91.40
2022-11-23T21:37:13.147Z,93.13
2022-11-23T21:39:41.506Z,92.27
2022-11-23T21:42:08.640Z,93.08
2022-11-23T21:44:35.829Z,91.71
2022-11-23T21:47:02.881Z,91.47
2022-11-23T21:49:29.783Z,91.96
2022-11-23T21:51:56.846Z,91.18
2022-11-23T21:54:23.845Z,91.56
2022-11-23T21:56:50.840Z,92.25
2022-11-23T21:59:17.941Z,92.74
2022-11-23T22:01:45.109Z,91.93
2022-11-23T22:04:15.736Z,92.02
2022-11-23T22:06:44.765Z,92.54
2022-11-23T22:09:12.862Z,92.43
2022-11-23T22:11:41.814Z,91.28
2022-11-23T22:14:11.990Z,93.57
2022-11-23T22:16:43.078Z,92.72
2022-11-23T22:19:17.416Z,93.50
2022-11-23T22:21:45.700Z,93.67
2022-11-23T22:24:17.860Z,93.41
2022-11-23T22:26:46.081Z,93.96
2022-11-23T22:29:13.298Z,93.20
2022-11-23T22:33:35.406Z,93.44
2022-11-23T22:36:22.099Z,95.01
2022-11-23T22:38:59.570Z,94.28
2022-11-23T22:41:30.470Z,94.29
2022-11-23T22:43:58.289Z,93.80
2022-11-23T22:46:26.047Z,93.52
2022-11-23T22:48:53.847Z,94.47
2022-11-23T22:51:22.845Z,94.80
2022-11-23T22:54:01.025Z,94.60
2022-11-23T22:56:29.170Z,94.57
2022-11-23T22:58:59.009Z,94.31
2022-11-23T23:01:28.814Z,93.77
2022-11-23T23:03:58.570Z,93.87
2022-11-23T23:06:31.287Z,94.25
2022-11-23T23:09:00.483Z,93.68
2022-11-23T23:11:30.255Z,93.71
2022-11-23T23:13:59.419Z,93.45
2022-11-23T23:16:27.394Z,94.29
2022-11-23T23:18:58.661Z,94.82
2022-11-23T23:21:27.666Z,94.59
2022-11-23T23:23:57.748Z,95.54
2022-11-23T23:26:27.627Z,94.91
2022-11-23T23:28:56.424Z,95.24
2022-11-23T23:31:23.954Z,96.04
2022-11-23T23:33:51.443Z,96.82
2022-11-23T23:36:21.746Z,95.07
2022-11-23T23:38:49.426Z,94.50
2022-11-23T23:41:16.540Z,96.72
2022-11-23T23:43:43.655Z,97.04
2022-11-23T23:46:19.765Z,96.85
2022-11-23T23:48:47.269Z,96.39
2022-11-23T23:51:20.648Z,96.90
2022-11-23T23:53:47.924Z,97.89
2022-11-23T23:56:27.084Z,97.13
2022-11-23T23:59:00.680Z,95.70
